sensor_id;sensor_type;location;lat;lon;timestamp;pressure;altitude;pressure_sealevel;temperature;humidity
70407;BME280;57821;52.202;0.154;2023-04-07T00:00:45;101792.53;;;7.49;72.54
70407;BME280;57821;52.202;0.154;2023-04-07T00:03:32;101787.31;;;7.48;72.73
70407;BME280;57821;52.202;0.154;2023-04-07T00:06:19;101787.25;;;7.45;73.29
70407;BME280;57821;52.202;0.154;2023-04-07T00:09:06;101793.25;;;7.43;73.02
70407;BME280;57821;52.202;0.154;2023-04-07T00:11:52;101795.00;;;7.45;72.86
70407;BME280;57821;52.202;0.154;2023-04-07T00:14:39;101801.06;;;7.47;73.14
70407;BME280;57821;52.202;0.154;2023-04-07T00:17:26;101797.69;;;7.49;73.34
70407;BME280;57821;52.202;0.154;2023-04-07T00:20:13;101800.31;;;7.51;73.19
70407;BME280;57821;52.202;0.154;2023-04-07T00:23:00;101801.25;;;7.54;73.58
70407;BME280;57821;52.202;0.154;2023-04-07T00:25:47;101805.66;;;7.57;72.90
70407;BME280;57821;52.202;0.154;2023-04-07T00:28:34;101804.78;;;7.58;73.17
70407;BME280;57821;52.202;0.154;2023-04-07T00:31:21;101807.34;;;7.58;72.89
70407;BME280;57821;52.202;0.154;2023-04-07T00:34:08;101816.81;;;7.57;72.69
70407;BME280;57821;52.202;0.154;2023-04-07T00:36:54;101816.75;;;7.54;72.41
70407;BME280;57821;52.202;0.154;2023-04-07T00:39:41;101814.13;;;7.53;73.44
70407;BME280;57821;52.202;0.154;2023-04-07T00:42:28;101810.59;;;7.49;72.98
70407;BME280;57821;52.202;0.154;2023-04-07T00:45:15;101819.94;;;7.46;73.04
70407;BME280;57821;52.202;0.154;2023-04-07T00:48:03;101821.53;;;7.40;73.64
70407;BME280;57821;52.202;0.154;2023-04-07T00:50:50;101815.41;;;7.35;73.43
70407;BME280;57821;52.202;0.154;2023-04-07T00:53:37;101810.16;;;7.32;73.00
70407;BME280;57821;52.202;0.154;2023-04-07T00:56:25;101813.47;;;7.28;73.76
70407;BME280;57821;52.202;0.154;2023-04-07T00:59:12;101809.91;;;7.23;73.74
70407;BME280;57821;52.202;0.154;2023-04-07T01:05:49;101805.41;;;7.15;74.70
70407;BME280;57821;52.202;0.154;2023-04-07T01:08:53;101805.28;;;7.10;75.19
70407;BME280;57821;52.202;0.154;2023-04-07T01:14:52;101810.28;;;7.06;75.20
70407;BME280;57821;52.202;0.154;2023-04-07T01:18:06;101801.50;;;6.99;75.82
70407;BME280;57821;52.202;0.154;2023-04-07T01:21:03;101814.44;;;7.00;75.84
70407;BME280;57821;52.202;0.154;2023-04-07T01:27:06;101821.41;;;7.03;78.84
70407;BME280;57821;52.202;0.154;2023-04-07T01:30:01;101828.31;;;7.04;77.33
70407;BME280;57821;52.202;0.154;2023-04-07T01:32:50;101821.31;;;7.00;77.27
70407;BME280;57821;52.202;0.154;2023-04-07T01:35:40;101824.88;;;7.05;77.09
70407;BME280;57821;52.202;0.154;2023-04-07T01:38:30;101833.53;;;7.07;76.54
70407;BME280;57821;52.202;0.154;2023-04-07T01:41:18;101838.75;;;7.09;76.45
70407;BME280;57821;52.202;0.154;2023-04-07T01:44:06;101835.13;;;7.02;76.56
70407;BME280;57821;52.202;0.154;2023-04-07T01:46:55;101830.13;;;7.08;76.92
70407;BME280;57821;52.202;0.154;2023-04-07T01:49:42;101843.88;;;7.07;77.63
70407;BME280;57821;52.202;0.154;2023-04-07T01:52:32;101841.28;;;7.07;76.52
70407;BME280;57821;52.202;0.154;2023-04-07T01:55:20;101842.94;;;7.05;76.72
70407;BME280;57821;52.202;0.154;2023-04-07T01:58:23;101841.13;;;7.01;76.75
70407;BME280;57821;52.202;0.154;2023-04-07T02:01:11;101841.03;;;6.98;76.57
70407;BME280;57821;52.202;0.154;2023-04-07T02:04:11;101838.19;;;6.89;76.79
70407;BME280;57821;52.202;0.154;2023-04-07T02:07:07;101845.78;;;6.84;76.57
70407;BME280;57821;52.202;0.154;2023-04-07T02:10:01;101853.59;;;6.86;77.39
70407;BME280;57821;52.202;0.154;2023-04-07T02:12:49;101855.22;;;6.84;76.78
70407;BME280;57821;52.202;0.154;2023-04-07T02:15:39;101847.28;;;6.76;76.56
70407;BME280;57821;52.202;0.154;2023-04-07T02:18:27;101849.94;;;6.79;77.93
70407;BME280;57821;52.202;0.154;2023-04-07T02:21:17;101864.47;;;6.77;77.03
70407;BME280;57821;52.202;0.154;2023-04-07T02:24:05;101858.47;;;6.77;77.76
70407;BME280;57821;52.202;0.154;2023-04-07T02:26:52;101863.59;;;6.75;77.98
70407;BME280;57821;52.202;0.154;2023-04-07T02:29:39;101862.66;;;6.73;78.21
70407;BME280;57821;52.202;0.154;2023-04-07T02:32:26;101870.53;;;6.78;79.32
70407;BME280;57821;52.202;0.154;2023-04-07T02:35:13;101862.84;;;6.79;78.76
70407;BME280;57821;52.202;0.154;2023-04-07T02:38:00;101869.00;;;6.84;77.73
70407;BME280;57821;52.202;0.154;2023-04-07T02:40:47;101867.38;;;6.88;77.79
70407;BME280;57821;52.202;0.154;2023-04-07T02:43:34;101866.59;;;6.90;78.37
70407;BME280;57821;52.202;0.154;2023-04-07T02:46:21;101870.97;;;6.93;77.72
70407;BME280;57821;52.202;0.154;2023-04-07T02:49:08;101875.44;;;6.98;77.80
70407;BME280;57821;52.202;0.154;2023-04-07T02:51:57;101878.97;;;7.02;78.38
70407;BME280;57821;52.202;0.154;2023-04-07T02:54:44;101878.19;;;7.05;77.62
70407;BME280;57821;52.202;0.154;2023-04-07T02:57:31;101880.78;;;7.05;77.42
70407;BME280;57821;52.202;0.154;2023-04-07T03:00:21;101880.78;;;7.06;77.56
70407;BME280;57821;52.202;0.154;2023-04-07T03:03:23;101891.09;;;7.06;78.46
70407;BME280;57821;52.202;0.154;2023-04-07T03:06:21;101889.41;;;7.07;77.95
70407;BME280;57821;52.202;0.154;2023-04-07T03:09:20;101875.63;;;7.05;77.85
70407;BME280;57821;52.202;0.154;2023-04-07T03:12:06;101879.97;;;7.07;77.26
70407;BME280;57821;52.202;0.154;2023-04-07T03:14:55;101881.63;;;7.05;77.10
70407;BME280;57821;52.202;0.154;2023-04-07T03:17:43;101884.13;;;7.02;77.25
70407;BME280;57821;52.202;0.154;2023-04-07T03:20:30;101886.56;;;6.97;76.76
70407;BME280;57821;52.202;0.154;2023-04-07T03:23:22;101891.69;;;6.96;77.52
70407;BME280;57821;52.202;0.154;2023-04-07T03:26:09;101889.03;;;6.93;76.98
70407;BME280;57821;52.202;0.154;2023-04-07T03:28:57;101896.59;;;6.87;77.15
70407;BME280;57821;52.202;0.154;2023-04-07T03:31:45;101891.31;;;6.84;78.07
70407;BME280;57821;52.202;0.154;2023-04-07T03:34:34;101896.41;;;6.81;77.49
70407;BME280;57821;52.202;0.154;2023-04-07T03:37:21;101896.28;;;6.78;77.77
70407;BME280;57821;52.202;0.154;2023-04-07T03:40:08;101897.94;;;6.76;78.09
70407;BME280;57821;52.202;0.154;2023-04-07T03:42:55;101898.75;;;6.73;77.49
70407;BME280;57821;52.202;0.154;2023-04-07T03:45:42;101900.38;;;6.71;77.43
70407;BME280;57821;52.202;0.154;2023-04-07T03:48:29;101901.28;;;6.72;77.43
70407;BME280;57821;52.202;0.154;2023-04-07T03:51:27;101907.41;;;6.75;78.22
70407;BME280;57821;52.202;0.154;2023-04-07T03:54:16;101903.97;;;6.76;77.81
70407;BME280;57821;52.202;0.154;2023-04-07T03:57:04;101902.25;;;6.75;78.05
70407;BME280;57821;52.202;0.154;2023-04-07T03:59:56;101911.75;;;6.78;79.05
70407;BME280;57821;52.202;0.154;2023-04-07T04:02:43;101913.47;;;6.77;78.00
70407;BME280;57821;52.202;0.154;2023-04-07T04:05:34;101905.69;;;6.76;77.81
70407;BME280;57821;52.202;0.154;2023-04-07T04:08:22;101913.41;;;6.76;78.43
70407;BME280;57821;52.202;0.154;2023-04-07T04:11:09;101904.84;;;6.75;77.56
70407;BME280;57821;52.202;0.154;2023-04-07T04:14:04;101915.97;;;6.74;77.59
70407;BME280;57821;52.202;0.154;2023-04-07T04:16:53;101922.81;;;6.74;78.96
70407;BME280;57821;52.202;0.154;2023-04-07T04:19:53;101924.53;;;6.73;78.33
70407;BME280;57821;52.202;0.154;2023-04-07T04:22:46;101930.50;;;6.72;78.05
70407;BME280;57821;52.202;0.154;2023-04-07T04:25:33;101930.44;;;6.71;78.48
70407;BME280;57821;52.202;0.154;2023-04-07T04:28:23;101933.88;;;6.70;77.75
70407;BME280;57821;52.202;0.154;2023-04-07T04:31:10;101931.19;;;6.67;78.32
70407;BME280;57821;52.202;0.154;2023-04-07T04:34:01;101931.09;;;6.64;77.80
70407;BME280;57821;52.202;0.154;2023-04-07T04:36:49;101931.75;;;6.56;77.75
70407;BME280;57821;52.202;0.154;2023-04-07T04:39:38;101931.75;;;6.56;77.66
70407;BME280;57821;52.202;0.154;2023-04-07T04:42:26;101940.19;;;6.52;77.30
70407;BME280;57821;52.202;0.154;2023-04-07T04:45:17;101941.75;;;6.47;78.02
70407;BME280;57821;52.202;0.154;2023-04-07T04:48:06;101940.78;;;6.44;77.09
70407;BME280;57821;52.202;0.154;2023-04-07T04:50:53;101944.97;;;6.40;78.80
70407;BME280;57821;52.202;0.154;2023-04-07T04:53:41;101944.84;;;6.37;77.72
70407;BME280;57821;52.202;0.154;2023-04-07T04:56:28;101946.50;;;6.35;78.33
70407;BME280;57821;52.202;0.154;2023-04-07T04:59:14;101948.22;;;6.35;78.35
70407;BME280;57821;52.202;0.154;2023-04-07T05:02:18;101949.94;;;6.34;78.35
70407;BME280;57821;52.202;0.154;2023-04-07T05:05:06;101952.66;;;6.39;78.64
70407;BME280;57821;52.202;0.154;2023-04-07T05:07:53;101957.88;;;6.42;78.29
70407;BME280;57821;52.202;0.154;2023-04-07T05:10:41;101954.53;;;6.44;78.53
70407;BME280;57821;52.202;0.154;2023-04-07T05:13:32;101961.44;;;6.45;78.22
70407;BME280;57821;52.202;0.154;2023-04-07T05:16:22;101963.22;;;6.46;79.04
70407;BME280;57821;52.202;0.154;2023-04-07T05:19:09;101967.47;;;6.46;78.42
70407;BME280;57821;52.202;0.154;2023-04-07T05:21:56;101966.63;;;6.47;78.87
70407;BME280;57821;52.202;0.154;2023-04-07T05:24:44;101972.78;;;6.50;79.33
70407;BME280;57821;52.202;0.154;2023-04-07T05:27:31;101968.53;;;6.52;77.87
70407;BME280;57821;52.202;0.154;2023-04-07T05:30:22;101976.25;;;6.52;79.20
70407;BME280;57821;52.202;0.154;2023-04-07T05:33:08;101975.44;;;6.53;77.63
70407;BME280;57821;52.202;0.154;2023-04-07T05:36:03;101976.22;;;6.51;77.92
70407;BME280;57821;52.202;0.154;2023-04-07T05:38:51;101977.88;;;6.49;78.44
70407;BME280;57821;52.202;0.154;2023-04-07T05:41:38;101982.06;;;6.45;77.75
70407;BME280;57821;52.202;0.154;2023-04-07T05:44:25;101981.88;;;6.41;78.21
70407;BME280;57821;52.202;0.154;2023-04-07T05:47:13;101986.06;;;6.37;78.28
70407;BME280;57821;52.202;0.154;2023-04-07T05:50:00;101989.38;;;6.33;78.10
70407;BME280;57821;52.202;0.154;2023-04-07T05:52:49;101989.19;;;6.27;77.74
70407;BME280;57821;52.202;0.154;2023-04-07T05:55:45;101993.41;;;6.25;78.71
70407;BME280;57821;52.202;0.154;2023-04-07T05:58:42;101982.94;;;6.21;78.61
70407;BME280;57821;52.202;0.154;2023-04-07T06:01:29;101991.44;;;6.18;77.87
70407;BME280;57821;52.202;0.154;2023-04-07T06:04:17;102000.81;;;6.16;78.80
70407;BME280;57821;52.202;0.154;2023-04-07T06:07:07;102011.88;;;6.13;78.86
70407;BME280;57821;52.202;0.154;2023-04-07T06:09:53;102004.94;;;6.11;77.77
70407;BME280;57821;52.202;0.154;2023-04-07T06:12:40;102011.72;;;6.09;78.20
70407;BME280;57821;52.202;0.154;2023-04-07T06:15:27;102012.63;;;6.09;78.36
70407;BME280;57821;52.202;0.154;2023-04-07T06:18:14;102021.97;;;6.07;78.10
70407;BME280;57821;52.202;0.154;2023-04-07T06:21:01;102022.75;;;6.05;78.21
70407;BME280;57821;52.202;0.154;2023-04-07T06:23:47;102023.56;;;6.04;78.71
70407;BME280;57821;52.202;0.154;2023-04-07T06:26:35;102021.75;;;6.01;78.10
70407;BME280;57821;52.202;0.154;2023-04-07T06:29:22;102027.78;;;6.02;78.77
70407;BME280;57821;52.202;0.154;2023-04-07T06:32:09;102037.28;;;6.03;78.82
70407;BME280;57821;52.202;0.154;2023-04-07T06:34:56;102040.72;;;6.03;78.25
70407;BME280;57821;52.202;0.154;2023-04-07T06:37:42;102039.91;;;6.04;78.20
70407;BME280;57821;52.202;0.154;2023-04-07T06:40:29;102037.34;;;6.04;78.53
70407;BME280;57821;52.202;0.154;2023-04-07T06:43:17;102053.88;;;6.11;79.12
70407;BME280;57821;52.202;0.154;2023-04-07T06:46:13;102047.03;;;6.11;78.70
70407;BME280;57821;52.202;0.154;2023-04-07T06:49:00;102057.47;;;6.16;78.11
70407;BME280;57821;52.202;0.154;2023-04-07T06:51:47;102057.56;;;6.19;78.77
70407;BME280;57821;52.202;0.154;2023-04-07T06:54:34;102055.94;;;6.21;78.01
70407;BME280;57821;52.202;0.154;2023-04-07T06:57:21;102066.34;;;6.24;78.02
70407;BME280;57821;52.202;0.154;2023-04-07T07:00:08;102063.00;;;6.27;78.44
70407;BME280;57821;52.202;0.154;2023-04-07T07:02:55;102066.53;;;6.30;78.78
70407;BME280;57821;52.202;0.154;2023-04-07T07:05:43;102065.88;;;6.36;78.09
70407;BME280;57821;52.202;0.154;2023-04-07T07:08:29;102066.91;;;6.41;78.31
70407;BME280;57821;52.202;0.154;2023-04-07T07:11:16;102073.16;;;6.47;77.67
70407;BME280;57821;52.202;0.154;2023-04-07T07:14:03;102065.63;;;6.53;77.66
70407;BME280;57821;52.202;0.154;2023-04-07T07:16:50;102071.78;;;6.57;77.37
70407;BME280;57821;52.202;0.154;2023-04-07T07:19:37;102067.69;;;6.64;76.96
70407;BME280;57821;52.202;0.154;2023-04-07T07:22:23;102066.16;;;6.70;77.21
70407;BME280;57821;52.202;0.154;2023-04-07T07:25:10;102071.59;;;6.78;77.19
70407;BME280;57821;52.202;0.154;2023-04-07T07:27:57;102072.59;;;6.83;76.62
70407;BME280;57821;52.202;0.154;2023-04-07T07:30:44;102070.28;;;6.90;76.71
70407;BME280;57821;52.202;0.154;2023-04-07T07:33:31;102071.41;;;6.98;77.27
70407;BME280;57821;52.202;0.154;2023-04-07T07:36:18;102073.44;;;7.09;76.68
70407;BME280;57821;52.202;0.154;2023-04-07T07:39:05;102078.13;;;7.20;76.85
70407;BME280;57821;52.202;0.154;2023-04-07T07:41:51;102079.19;;;7.28;76.39
70407;BME280;57821;52.202;0.154;2023-04-07T07:44:38;102092.47;;;7.40;76.76
70407;BME280;57821;52.202;0.154;2023-04-07T07:47:25;102085.94;;;7.52;75.59
70407;BME280;57821;52.202;0.154;2023-04-07T07:50:12;102091.47;;;7.64;75.30
70407;BME280;57821;52.202;0.154;2023-04-07T07:52:59;102092.69;;;7.76;75.58
70407;BME280;57821;52.202;0.154;2023-04-07T07:55:46;102094.75;;;7.88;75.21
70407;BME280;57821;52.202;0.154;2023-04-07T07:58:32;102090.81;;;8.01;74.92
70407;BME280;57821;52.202;0.154;2023-04-07T08:01:19;102101.50;;;8.13;74.22
70407;BME280;57821;52.202;0.154;2023-04-07T08:04:06;102102.72;;;8.25;74.83
70407;BME280;57821;52.202;0.154;2023-04-07T08:06:53;102103.09;;;8.39;74.38
70407;BME280;57821;52.202;0.154;2023-04-07T08:09:40;102104.38;;;8.55;74.39
70407;BME280;57821;52.202;0.154;2023-04-07T08:12:27;102106.44;;;8.68;73.97
70407;BME280;57821;52.202;0.154;2023-04-07T08:15:14;102107.72;;;8.84;73.55
70407;BME280;57821;52.202;0.154;2023-04-07T08:18:01;102106.31;;;8.96;73.94
70407;BME280;57821;52.202;0.154;2023-04-07T08:20:47;102112.66;;;9.11;72.92
70407;BME280;57821;52.202;0.154;2023-04-07T08:23:34;102108.59;;;9.22;72.29
70407;BME280;57821;52.202;0.154;2023-04-07T08:26:21;102114.00;;;9.31;71.82
70407;BME280;57821;52.202;0.154;2023-04-07T08:29:08;102122.84;;;9.40;72.02
70407;BME280;57821;52.202;0.154;2023-04-07T08:31:55;102113.66;;;9.53;72.31
70407;BME280;57821;52.202;0.154;2023-04-07T08:34:42;102120.03;;;9.69;71.83
70407;BME280;57821;52.202;0.154;2023-04-07T08:37:30;102116.81;;;9.80;71.61
70407;BME280;57821;52.202;0.154;2023-04-07T08:40:17;102122.31;;;9.94;71.50
70407;BME280;57821;52.202;0.154;2023-04-07T08:43:07;102110.34;;;10.02;70.81
70407;BME280;57821;52.202;0.154;2023-04-07T08:45:56;102128.88;;;10.19;70.71
70407;BME280;57821;52.202;0.154;2023-04-07T08:48:43;102131.69;;;10.29;70.29
70407;BME280;57821;52.202;0.154;2023-04-07T08:51:31;102129.28;;;10.40;69.09
70407;BME280;57821;52.202;0.154;2023-04-07T08:54:18;102136.34;;;10.47;69.01
70407;BME280;57821;52.202;0.154;2023-04-07T08:57:06;102120.91;;;10.53;69.42
70407;BME280;57821;52.202;0.154;2023-04-07T08:59:53;102129.00;;;10.72;68.30
70407;BME280;57821;52.202;0.154;2023-04-07T09:02:42;102126.59;;;10.84;68.40
70407;BME280;57821;52.202;0.154;2023-04-07T09:05:29;102132.00;;;10.96;67.54
70407;BME280;57821;52.202;0.154;2023-04-07T09:08:16;102138.22;;;11.07;67.56
70407;BME280;57821;52.202;0.154;2023-04-07T09:11:03;102134.13;;;11.18;67.63
70407;BME280;57821;52.202;0.154;2023-04-07T09:13:50;102131.69;;;11.32;67.64
70407;BME280;57821;52.202;0.154;2023-04-07T09:16:38;102138.88;;;11.48;67.37
70407;BME280;57821;52.202;0.154;2023-04-07T09:19:26;102130.41;;;11.61;66.75
70407;BME280;57821;52.202;0.154;2023-04-07T09:22:13;102128.09;;;11.82;66.65
70407;BME280;57821;52.202;0.154;2023-04-07T09:28:04;102128.72;;;12.32;66.21
70407;BME280;57821;52.202;0.154;2023-04-07T09:30:54;102133.41;;;12.67;65.27
70407;BME280;57821;52.202;0.154;2023-04-07T09:33:41;102137.19;;;13.01;63.47
70407;BME280;57821;52.202;0.154;2023-04-07T09:36:28;102144.34;;;13.25;62.21
70407;BME280;57821;52.202;0.154;2023-04-07T09:39:26;102145.31;;;13.40;61.23
70407;BME280;57821;52.202;0.154;2023-04-07T09:42:13;102140.19;;;13.54;61.55
70407;BME280;57821;52.202;0.154;2023-04-07T09:45:00;102133.31;;;13.65;60.15
70407;BME280;57821;52.202;0.154;2023-04-07T09:47:47;102135.09;;;13.71;60.15
70407;BME280;57821;52.202;0.154;2023-04-07T09:50:37;102128.16;;;13.80;59.24
70407;BME280;57821;52.202;0.154;2023-04-07T09:53:43;102139.56;;;13.97;57.94
70407;BME280;57821;52.202;0.154;2023-04-07T09:56:31;102135.28;;;14.15;59.64
70407;BME280;57821;52.202;0.154;2023-04-07T09:59:18;102130.97;;;14.33;57.45
70407;BME280;57821;52.202;0.154;2023-04-07T10:02:06;102138.03;;;14.50;57.01
70407;BME280;57821;52.202;0.154;2023-04-07T10:04:54;102133.69;;;14.65;56.50
70407;BME280;57821;52.202;0.154;2023-04-07T10:07:42;102141.53;;;14.77;55.64
70407;BME280;57821;52.202;0.154;2023-04-07T10:10:30;102135.47;;;14.89;56.23
70407;BME280;57821;52.202;0.154;2023-04-07T10:13:17;102138.06;;;15.09;55.80
70407;BME280;57821;52.202;0.154;2023-04-07T10:16:05;102136.31;;;15.31;56.55
70407;BME280;57821;52.202;0.154;2023-04-07T10:18:53;102144.97;;;15.71;55.41
70407;BME280;57821;52.202;0.154;2023-04-07T10:21:41;102137.00;;;16.06;54.10
70407;BME280;57821;52.202;0.154;2023-04-07T10:24:57;102140.22;;;16.53;51.21
70407;BME280;57821;52.202;0.154;2023-04-07T10:27:52;102132.13;;;16.90;51.74
70407;BME280;57821;52.202;0.154;2023-04-07T10:30:40;102144.00;;;17.30;50.00
70407;BME280;57821;52.202;0.154;2023-04-07T10:33:44;102143.88;;;17.45;46.52
70407;BME280;57821;52.202;0.154;2023-04-07T10:36:31;102142.06;;;17.49;48.26
70407;BME280;57821;52.202;0.154;2023-04-07T10:39:18;102141.03;;;17.68;47.82
70407;BME280;57821;52.202;0.154;2023-04-07T10:42:05;102128.50;;;17.93;47.86
70407;BME280;57821;52.202;0.154;2023-04-07T10:44:52;102135.84;;;18.31;47.10
70407;BME280;57821;52.202;0.154;2023-04-07T10:50:45;102142.78;;;18.95;45.52
70407;BME280;57821;52.202;0.154;2023-04-07T10:53:32;102134.91;;;18.95;44.02
70407;BME280;57821;52.202;0.154;2023-04-07T10:56:19;102128.69;;;18.99;44.06
70407;BME280;57821;52.202;0.154;2023-04-07T10:59:15;102128.66;;;19.02;43.89
70407;BME280;57821;52.202;0.154;2023-04-07T11:04:58;102122.56;;;19.00;41.67
70407;BME280;57821;52.202;0.154;2023-04-07T11:07:50;102127.13;;;18.88;42.40
70407;BME280;57821;52.202;0.154;2023-04-07T11:10:37;102128.78;;;18.94;42.42
70407;BME280;57821;52.202;0.154;2023-04-07T11:13:25;102123.44;;;19.00;42.68
70407;BME280;57821;52.202;0.154;2023-04-07T11:16:13;102129.63;;;18.96;42.11
70407;BME280;57821;52.202;0.154;2023-04-07T11:19:00;102122.81;;;18.86;42.71
70407;BME280;57821;52.202;0.154;2023-04-07T11:21:47;102125.47;;;18.81;42.26
70407;BME280;57821;52.202;0.154;2023-04-07T11:24:36;102127.41;;;18.72;41.81
70407;BME280;57821;52.202;0.154;2023-04-07T11:27:23;102124.16;;;18.53;41.62
70407;BME280;57821;52.202;0.154;2023-04-07T11:30:10;102132.16;;;18.45;42.08
70407;BME280;57821;52.202;0.154;2023-04-07T11:32:57;102121.66;;;18.45;42.31
70407;BME280;57821;52.202;0.154;2023-04-07T11:35:53;102122.53;;;18.44;40.70
70407;BME280;57821;52.202;0.154;2023-04-07T11:38:40;102122.69;;;18.34;41.35
70407;BME280;57821;52.202;0.154;2023-04-07T11:41:29;102129.78;;;18.27;40.99
70407;BME280;57821;52.202;0.154;2023-04-07T11:44:16;102132.34;;;18.33;41.05
70407;BME280;57821;52.202;0.154;2023-04-07T11:47:03;102129.47;;;18.48;41.25
70407;BME280;57821;52.202;0.154;2023-04-07T11:49:50;102122.13;;;18.73;41.36
70407;BME280;57821;52.202;0.154;2023-04-07T11:52:44;102125.16;;;19.01;40.00
70407;BME280;57821;52.202;0.154;2023-04-07T11:55:31;102122.50;;;19.04;40.15
70407;BME280;57821;52.202;0.154;2023-04-07T11:58:18;102127.88;;;18.97;39.09
70407;BME280;57821;52.202;0.154;2023-04-07T12:01:05;102129.03;;;18.80;39.65
70407;BME280;57821;52.202;0.154;2023-04-07T12:04:00;102125.81;;;18.63;38.58
70407;BME280;57821;52.202;0.154;2023-04-07T12:06:49;102125.97;;;18.48;39.75
70407;BME280;57821;52.202;0.154;2023-04-07T12:09:36;102130.44;;;18.41;38.56
70407;BME280;57821;52.202;0.154;2023-04-07T12:12:27;102136.56;;;18.42;38.48
70407;BME280;57821;52.202;0.154;2023-04-07T12:15:14;102129.72;;;18.32;38.08
70407;BME280;57821;52.202;0.154;2023-04-07T12:18:01;102130.09;;;18.04;37.87
70407;BME280;57821;52.202;0.154;2023-04-07T12:20:48;102139.06;;;17.87;38.84
70407;BME280;57821;52.202;0.154;2023-04-07T12:23:35;102129.50;;;17.81;39.48
70407;BME280;57821;52.202;0.154;2023-04-07T12:26:22;102132.00;;;17.93;39.59
70407;BME280;57821;52.202;0.154;2023-04-07T12:29:09;102122.19;;;18.06;39.58
70407;BME280;57821;52.202;0.154;2023-04-07T12:31:56;102129.97;;;18.14;39.50
70407;BME280;57821;52.202;0.154;2023-04-07T12:34:42;102117.88;;;18.00;37.87
70407;BME280;57821;52.202;0.154;2023-04-07T12:37:29;102126.97;;;17.74;38.79
70407;BME280;57821;52.202;0.154;2023-04-07T12:40:16;102122.69;;;17.65;38.33
70407;BME280;57821;52.202;0.154;2023-04-07T12:43:04;102128.00;;;17.57;37.84
70407;BME280;57821;52.202;0.154;2023-04-07T12:45:51;102128.03;;;17.54;38.28
70407;BME280;57821;52.202;0.154;2023-04-07T12:48:38;102123.75;;;17.46;37.91
70407;BME280;57821;52.202;0.154;2023-04-07T12:51:25;102125.75;;;17.22;37.99
70407;BME280;57821;52.202;0.154;2023-04-07T12:54:12;102129.41;;;17.02;38.15
70407;BME280;57821;52.202;0.154;2023-04-07T12:56:58;102125.19;;;16.86;38.79
70407;BME280;57821;52.202;0.154;2023-04-07T12:59:45;102114.75;;;16.79;38.57
70407;BME280;57821;52.202;0.154;2023-04-07T13:02:32;102122.59;;;16.81;38.74
70407;BME280;57821;52.202;0.154;2023-04-07T13:05:19;102127.81;;;16.84;39.32
70407;BME280;57821;52.202;0.154;2023-04-07T13:08:06;102122.53;;;16.90;39.50
70407;BME280;57821;52.202;0.154;2023-04-07T13:10:53;102128.53;;;17.01;38.68
70407;BME280;57821;52.202;0.154;2023-04-07T13:13:40;102141.63;;;17.04;38.69
70407;BME280;57821;52.202;0.154;2023-04-07T13:16:27;102123.25;;;17.07;38.68
70407;BME280;57821;52.202;0.154;2023-04-07T13:19:14;102126.69;;;17.12;38.38
70407;BME280;57821;52.202;0.154;2023-04-07T13:22:00;102123.13;;;17.21;38.25
70407;BME280;57821;52.202;0.154;2023-04-07T13:24:51;102128.31;;;17.29;38.32
70407;BME280;57821;52.202;0.154;2023-04-07T13:27:38;102133.31;;;17.48;38.26
70407;BME280;57821;52.202;0.154;2023-04-07T13:30:25;102127.13;;;17.57;38.28
70407;BME280;57821;52.202;0.154;2023-04-07T13:33:12;102124.47;;;17.64;37.42
70407;BME280;57821;52.202;0.154;2023-04-07T13:35:59;102130.47;;;17.74;36.58
70407;BME280;57821;52.202;0.154;2023-04-07T13:38:46;102124.28;;;17.78;37.43
70407;BME280;57821;52.202;0.154;2023-04-07T13:41:33;102117.06;;;17.95;36.35
70407;BME280;57821;52.202;0.154;2023-04-07T13:44:20;102116.03;;;18.09;35.63
70407;BME280;57821;52.202;0.154;2023-04-07T13:47:06;102123.22;;;17.94;35.10
70407;BME280;57821;52.202;0.154;2023-04-07T13:49:53;102125.28;;;17.68;34.85
70407;BME280;57821;52.202;0.154;2023-04-07T13:52:40;102121.94;;;17.51;36.41
70407;BME280;57821;52.202;0.154;2023-04-07T13:55:27;102110.50;;;17.62;35.45
70407;BME280;57821;52.202;0.154;2023-04-07T13:58:14;102113.72;;;17.86;36.24
70407;BME280;57821;52.202;0.154;2023-04-07T14:01:02;102112.41;;;18.19;35.25
70407;BME280;57821;52.202;0.154;2023-04-07T14:03:49;102112.75;;;18.54;35.41
70407;BME280;57821;52.202;0.154;2023-04-07T14:06:36;102116.69;;;18.85;33.54
70407;BME280;57821;52.202;0.154;2023-04-07T14:09:23;102107.44;;;19.12;34.59
70407;BME280;57821;52.202;0.154;2023-04-07T14:12:10;102110.31;;;19.49;35.18
70407;BME280;57821;52.202;0.154;2023-04-07T14:14:56;102115.66;;;19.88;33.45
70407;BME280;57821;52.202;0.154;2023-04-07T14:17:43;102117.78;;;20.12;32.58
70407;BME280;57821;52.202;0.154;2023-04-07T14:20:30;102112.97;;;20.31;33.46
70407;BME280;57821;52.202;0.154;2023-04-07T14:23:17;102113.00;;;20.68;33.74
70407;BME280;57821;52.202;0.154;2023-04-07T14:26:22;102114.53;;;21.12;30.65
70407;BME280;57821;52.202;0.154;2023-04-07T14:29:10;102109.53;;;21.37;31.62
70407;BME280;57821;52.202;0.154;2023-04-07T14:31:56;102104.75;;;21.80;31.47
70407;BME280;57821;52.202;0.154;2023-04-07T14:34:43;102108.78;;;22.23;30.77
70407;BME280;57821;52.202;0.154;2023-04-07T14:37:30;102102.31;;;22.33;29.17
70407;BME280;57821;52.202;0.154;2023-04-07T14:40:17;102103.53;;;22.49;28.67
70407;BME280;57821;52.202;0.154;2023-04-07T14:43:07;102096.75;;;22.68;29.13
70407;BME280;57821;52.202;0.154;2023-04-07T14:45:54;102090.97;;;23.10;28.34
70407;BME280;57821;52.202;0.154;2023-04-07T14:48:40;102096.44;;;23.55;28.95
70407;BME280;57821;52.202;0.154;2023-04-07T14:51:27;102090.75;;;23.89;26.96
70407;BME280;57821;52.202;0.154;2023-04-07T14:54:14;102085.44;;;23.89;27.45
70407;BME280;57821;52.202;0.154;2023-04-07T14:57:01;102087.00;;;23.94;27.33
70407;BME280;57821;52.202;0.154;2023-04-07T14:59:48;102089.09;;;23.86;26.63
70407;BME280;57821;52.202;0.154;2023-04-07T15:02:35;102093.38;;;23.65;28.06
70407;BME280;57821;52.202;0.154;2023-04-07T15:05:22;102092.38;;;23.45;28.28